sensor_id;sensor_type;location;lat;lon;timestamp;P1;durP1;ratioP1;P2;durP2;ratioP2
54665;SDS011;40566;50.006;36.180;2023-05-29T00:00:49;2.20;;;1.10;;
54665;SDS011;40566;50.006;36.180;2023-05-29T00:05:51;3.85;;;1.20;;
54665;SDS011;40566;50.006;36.180;2023-05-29T00:10:52;2.20;;;1.05;;
54665;SDS011;40566;50.006;36.180;2023-05-29T00:15:53;4.22;;;1.20;;
54665;SDS011;40566;50.006;36.180;2023-05-29T00:20:54;3.10;;;1.10;;
54665;SDS011;40566;50.006;36.180;2023-05-29T00:25:55;3.15;;;1.23;;
54665;SDS011;40566;50.006;36.180;2023-05-29T00:30:55;2.38;;;0.90;;
54665;SDS011;40566;50.006;36.180;2023-05-29T00:35:56;2.53;;;0.80;;
54665;SDS011;40566;50.006;36.180;2023-05-29T00:40:56;7.15;;;1.20;;
54665;SDS011;40566;50.006;36.180;2023-05-29T00:45:59;5.75;;;1.38;;
54665;SDS011;40566;50.006;36.180;2023-05-29T00:51:00;5.40;;;1.10;;
54665;SDS011;40566;50.006;36.180;2023-05-29T00:56:01;4.03;;;1.08;;
54665;SDS011;40566;50.006;36.180;2023-05-29T01:01:02;3.72;;;1.25;;
54665;SDS011;40566;50.006;36.180;2023-05-29T01:06:03;2.95;;;1.20;;
54665;SDS011;40566;50.006;36.180;2023-05-29T01:11:19;6.20;;;1.42;;
54665;SDS011;40566;50.006;36.180;2023-05-29T01:17:06;3.72;;;1.20;;
54665;SDS011;40566;50.006;36.180;2023-05-29T01:22:10;3.78;;;1.20;;
54665;SDS011;40566;50.006;36.180;2023-05-29T01:33:12;3.13;;;1.15;;
54665;SDS011;40566;50.006;36.180;2023-05-29T01:38:13;3.40;;;1.25;;
54665;SDS011;40566;50.006;36.180;2023-05-29T01:43:13;5.82;;;1.20;;
54665;SDS011;40566;50.006;36.180;2023-05-29T01:48:15;3.75;;;1.05;;
54665;SDS011;40566;50.006;36.180;2023-05-29T01:53:17;4.72;;;1.00;;
54665;SDS011;40566;50.006;36.180;2023-05-29T01:58:18;5.05;;;1.10;;
54665;SDS011;40566;50.006;36.180;2023-05-29T02:03:21;3.03;;;1.13;;
54665;SDS011;40566;50.006;36.180;2023-05-29T02:08:22;2.67;;;1.17;;
54665;SDS011;40566;50.006;36.180;2023-05-29T02:13:23;5.50;;;1.20;;
54665;SDS011;40566;50.006;36.180;2023-05-29T02:18:23;5.35;;;1.35;;
54665;SDS011;40566;50.006;36.180;2023-05-29T02:23:24;4.25;;;1.20;;
54665;SDS011;40566;50.006;36.180;2023-05-29T02:28:26;5.25;;;1.25;;
54665;SDS011;40566;50.006;36.180;2023-05-29T02:33:27;4.63;;;1.40;;
54665;SDS011;40566;50.006;36.180;2023-05-29T02:38:27;5.47;;;1.27;;
54665;SDS011;40566;50.006;36.180;2023-05-29T02:43:28;5.25;;;1.20;;
54665;SDS011;40566;50.006;36.180;2023-05-29T02:48:28;5.15;;;1.58;;
54665;SDS011;40566;50.006;36.180;2023-05-29T02:53:29;5.25;;;1.08;;
54665;SDS011;40566;50.006;36.180;2023-05-29T02:58:30;3.05;;;1.30;;
54665;SDS011;40566;50.006;36.180;2023-05-29T03:03:31;5.88;;;1.05;;
54665;SDS011;40566;50.006;36.180;2023-05-29T03:08:31;3.58;;;1.20;;
54665;SDS011;40566;50.006;36.180;2023-05-29T03:13:33;6.25;;;1.30;;
54665;SDS011;40566;50.006;36.180;2023-05-29T03:18:34;5.32;;;1.25;;
54665;SDS011;40566;50.006;36.180;2023-05-29T03:23:35;4.53;;;1.40;;
54665;SDS011;40566;50.006;36.180;2023-05-29T03:28:35;4.65;;;1.23;;
54665;SDS011;40566;50.006;36.180;2023-05-29T03:33:36;8.48;;;1.50;;
54665;SDS011;40566;50.006;36.180;2023-05-29T03:38:37;6.30;;;1.60;;
54665;SDS011;40566;50.006;36.180;2023-05-29T03:43:37;7.97;;;1.63;;
54665;SDS011;40566;50.006;36.180;2023-05-29T03:48:38;4.75;;;1.52;;
54665;SDS011;40566;50.006;36.180;2023-05-29T03:53:38;6.70;;;1.88;;
54665;SDS011;40566;50.006;36.180;2023-05-29T03:58:39;5.72;;;1.63;;
54665;SDS011;40566;50.006;36.180;2023-05-29T04:03:39;6.30;;;1.58;;
54665;SDS011;40566;50.006;36.180;2023-05-29T04:08:40;6.13;;;1.50;;
54665;SDS011;40566;50.006;36.180;2023-05-29T04:13:41;4.93;;;1.40;;
54665;SDS011;40566;50.006;36.180;2023-05-29T04:18:41;5.28;;;1.80;;
54665;SDS011;40566;50.006;36.180;2023-05-29T04:23:42;7.30;;;1.50;;
54665;SDS011;40566;50.006;36.180;2023-05-29T04:28:43;6.15;;;1.60;;
54665;SDS011;40566;50.006;36.180;2023-05-29T04:33:43;5.57;;;1.42;;
54665;SDS011;40566;50.006;36.180;2023-05-29T04:38:45;8.20;;;1.90;;
54665;SDS011;40566;50.006;36.180;2023-05-29T04:43:47;3.95;;;1.42;;
54665;SDS011;40566;50.006;36.180;2023-05-29T04:48:48;5.88;;;1.50;;
54665;SDS011;40566;50.006;36.180;2023-05-29T04:53:53;5.07;;;1.60;;
54665;SDS011;40566;50.006;36.180;2023-05-29T04:58:53;11.02;;;1.80;;
54665;SDS011;40566;50.006;36.180;2023-05-29T05:03:54;6.22;;;1.50;;
54665;SDS011;40566;50.006;36.180;2023-05-29T05:08:56;8.90;;;2.10;;
54665;SDS011;40566;50.006;36.180;2023-05-29T05:13:56;13.80;;;2.88;;
54665;SDS011;40566;50.006;36.180;2023-05-29T05:18:57;6.18;;;1.90;;
54665;SDS011;40566;50.006;36.180;2023-05-29T05:23:57;4.53;;;1.15;;
54665;SDS011;40566;50.006;36.180;2023-05-29T05:28:58;4.60;;;1.48;;
54665;SDS011;40566;50.006;36.180;2023-05-29T05:33:59;9.20;;;1.85;;
54665;SDS011;40566;50.006;36.180;2023-05-29T05:38:59;8.52;;;1.38;;
54665;SDS011;40566;50.006;36.180;2023-05-29T05:44:00;4.05;;;1.42;;
54665;SDS011;40566;50.006;36.180;2023-05-29T05:49:00;7.90;;;1.40;;
54665;SDS011;40566;50.006;36.180;2023-05-29T05:54:01;3.75;;;1.20;;
54665;SDS011;40566;50.006;36.180;2023-05-29T05:59:02;3.15;;;1.10;;
54665;SDS011;40566;50.006;36.180;2023-05-29T06:04:02;2.22;;;1.33;;
54665;SDS011;40566;50.006;36.180;2023-05-29T06:09:03;4.22;;;1.17;;
54665;SDS011;40566;50.006;36.180;2023-05-29T06:14:04;5.22;;;1.52;;
54665;SDS011;40566;50.006;36.180;2023-05-29T06:19:05;4.70;;;1.05;;
54665;SDS011;40566;50.006;36.180;2023-05-29T06:24:06;6.88;;;1.40;;
54665;SDS011;40566;50.006;36.180;2023-05-29T06:29:07;6.55;;;1.58;;
54665;SDS011;40566;50.006;36.180;2023-05-29T06:34:07;7.32;;;1.60;;
54665;SDS011;40566;50.006;36.180;2023-05-29T06:39:09;4.70;;;1.60;;
54665;SDS011;40566;50.006;36.180;2023-05-29T06:44:10;4.97;;;1.55;;
54665;SDS011;40566;50.006;36.180;2023-05-29T06:49:11;5.15;;;1.50;;
54665;SDS011;40566;50.006;36.180;2023-05-29T06:54:11;4.18;;;1.20;;
54665;SDS011;40566;50.006;36.180;2023-05-29T06:59:12;4.82;;;1.30;;
54665;SDS011;40566;50.006;36.180;2023-05-29T07:04:13;4.53;;;1.30;;
54665;SDS011;40566;50.006;36.180;2023-05-29T07:09:13;5.38;;;1.40;;
54665;SDS011;40566;50.006;36.180;2023-05-29T07:14:14;5.60;;;1.25;;
54665;SDS011;40566;50.006;36.180;2023-05-29T07:19:16;3.75;;;1.30;;
54665;SDS011;40566;50.006;36.180;2023-05-29T07:24:17;3.47;;;1.20;;
54665;SDS011;40566;50.006;36.180;2023-05-29T07:29:18;4.40;;;1.42;;
54665;SDS011;40566;50.006;36.180;2023-05-29T07:34:20;4.65;;;1.60;;
54665;SDS011;40566;50.006;36.180;2023-05-29T07:39:21;3.97;;;1.58;;
54665;SDS011;40566;50.006;36.180;2023-05-29T07:44:22;5.55;;;1.40;;
54665;SDS011;40566;50.006;36.180;2023-05-29T07:49:23;5.78;;;1.50;;
54665;SDS011;40566;50.006;36.180;2023-05-29T07:54:23;5.20;;;1.50;;
54665;SDS011;40566;50.006;36.180;2023-05-29T07:59:24;6.68;;;1.33;;
54665;SDS011;40566;50.006;36.180;2023-05-29T08:04:24;3.65;;;1.33;;
54665;SDS011;40566;50.006;36.180;2023-05-29T08:09:25;5.80;;;1.42;;
54665;SDS011;40566;50.006;36.180;2023-05-29T08:14:26;5.10;;;1.40;;
54665;SDS011;40566;50.006;36.180;2023-05-29T08:19:26;14.25;;;1.85;;
54665;SDS011;40566;50.006;36.180;2023-05-29T08:24:27;4.55;;;1.60;;
54665;SDS011;40566;50.006;36.180;2023-05-29T08:29:29;4.97;;;1.33;;
54665;SDS011;40566;50.006;36.180;2023-05-29T08:34:30;4.03;;;1.30;;
54665;SDS011;40566;50.006;36.180;2023-05-29T08:39:30;8.88;;;1.70;;
54665;SDS011;40566;50.006;36.180;2023-05-29T08:44:31;6.22;;;1.88;;
54665;SDS011;40566;50.006;36.180;2023-05-29T08:49:42;6.45;;;1.40;;
54665;SDS011;40566;50.006;36.180;2023-05-29T08:54:43;6.78;;;1.52;;
54665;SDS011;40566;50.006;36.180;2023-05-29T08:59:44;3.65;;;1.67;;
54665;SDS011;40566;50.006;36.180;2023-05-29T09:04:45;6.18;;;1.75;;
54665;SDS011;40566;50.006;36.180;2023-05-29T09:09:48;6.32;;;1.90;;
54665;SDS011;40566;50.006;36.180;2023-05-29T09:14:49;5.18;;;1.70;;
54665;SDS011;40566;50.006;36.180;2023-05-29T09:19:50;2.75;;;1.25;;
54665;SDS011;40566;50.006;36.180;2023-05-29T09:24:50;7.88;;;1.80;;
54665;SDS011;40566;50.006;36.180;2023-05-29T09:35:50;4.20;;;1.50;;
54665;SDS011;40566;50.006;36.180;2023-05-29T09:40:50;5.53;;;1.70;;
54665;SDS011;40566;50.006;36.180;2023-05-29T09:45:52;6.90;;;1.90;;
54665;SDS011;40566;50.006;36.180;2023-05-29T09:50:53;9.68;;;1.55;;
54665;SDS011;40566;50.006;36.180;2023-05-29T09:55:56;6.28;;;1.60;;
54665;SDS011;40566;50.006;36.180;2023-05-29T10:00:59;9.27;;;3.30;;
54665;SDS011;40566;50.006;36.180;2023-05-29T10:06:00;10.82;;;2.05;;
54665;SDS011;40566;50.006;36.180;2023-05-29T10:11:02;6.93;;;1.75;;
54665;SDS011;40566;50.006;36.180;2023-05-29T10:16:07;4.82;;;1.60;;
54665;SDS011;40566;50.006;36.180;2023-05-29T10:21:12;6.40;;;1.88;;
54665;SDS011;40566;50.006;36.180;2023-05-29T10:26:20;13.63;;;2.30;;
54665;SDS011;40566;50.006;36.180;2023-05-29T10:31:24;2.92;;;1.52;;
54665;SDS011;40566;50.006;36.180;2023-05-29T10:36:47;6.78;;;1.75;;
54665;SDS011;40566;50.006;36.180;2023-05-29T10:41:54;7.85;;;1.60;;
54665;SDS011;40566;50.006;36.180;2023-05-29T10:52:00;8.05;;;2.50;;
54665;SDS011;40566;50.006;36.180;2023-05-29T10:57:04;6.00;;;1.73;;
54665;SDS011;40566;50.006;36.180;2023-05-29T11:02:09;6.20;;;2.03;;
54665;SDS011;40566;50.006;36.180;2023-05-29T11:12:34;8.07;;;2.10;;
54665;SDS011;40566;50.006;36.180;2023-05-29T11:22:47;3.80;;;1.85;;
54665;SDS011;40566;50.006;36.180;2023-05-29T11:27:54;9.25;;;2.20;;
54665;SDS011;40566;50.006;36.180;2023-05-29T11:32:55;4.57;;;1.92;;
54665;SDS011;40566;50.006;36.180;2023-05-29T11:38:02;13.15;;;2.42;;
54665;SDS011;40566;50.006;36.180;2023-05-29T11:43:04;8.00;;;2.10;;
54665;SDS011;40566;50.006;36.180;2023-05-29T11:48:05;6.53;;;2.17;;
54665;SDS011;40566;50.006;36.180;2023-05-29T11:53:06;5.97;;;2.08;;
54665;SDS011;40566;50.006;36.180;2023-05-29T11:58:08;6.82;;;2.22;;
54665;SDS011;40566;50.006;36.180;2023-05-29T12:03:09;6.55;;;2.17;;
54665;SDS011;40566;50.006;36.180;2023-05-29T12:08:11;5.60;;;2.13;;
54665;SDS011;40566;50.006;36.180;2023-05-29T12:13:14;4.30;;;1.73;;
54665;SDS011;40566;50.006;36.180;2023-05-29T12:18:18;5.07;;;2.15;;
54665;SDS011;40566;50.006;36.180;2023-05-29T12:23:19;7.20;;;2.33;;
54665;SDS011;40566;50.006;36.180;2023-05-29T12:28:21;5.25;;;2.10;;
54665;SDS011;40566;50.006;36.180;2023-05-29T12:33:25;8.95;;;2.20;;
54665;SDS011;40566;50.006;36.180;2023-05-29T12:38:29;7.63;;;2.47;;
54665;SDS011;40566;50.006;36.180;2023-05-29T12:43:30;6.95;;;2.42;;
54665;SDS011;40566;50.006;36.180;2023-05-29T12:48:31;5.03;;;1.95;;
54665;SDS011;40566;50.006;36.180;2023-05-29T12:53:32;5.68;;;2.08;;
54665;SDS011;40566;50.006;36.180;2023-05-29T12:58:32;8.07;;;1.92;;
54665;SDS011;40566;50.006;36.180;2023-05-29T13:03:33;6.10;;;2.65;;
54665;SDS011;40566;50.006;36.180;2023-05-29T13:08:34;6.07;;;1.98;;
54665;SDS011;40566;50.006;36.180;2023-05-29T13:13:35;4.57;;;1.80;;
54665;SDS011;40566;50.006;36.180;2023-05-29T13:18:36;8.35;;;2.50;;
54665;SDS011;40566;50.006;36.180;2023-05-29T13:23:36;5.40;;;2.25;;
54665;SDS011;40566;50.006;36.180;2023-05-29T13:28:37;11.13;;;2.47;;
54665;SDS011;40566;50.006;36.180;2023-05-29T13:33:38;9.55;;;2.97;;
54665;SDS011;40566;50.006;36.180;2023-05-29T13:38:38;4.72;;;1.88;;
54665;SDS011;40566;50.006;36.180;2023-05-29T13:43:39;8.25;;;2.00;;
54665;SDS011;40566;50.006;36.180;2023-05-29T13:48:40;7.22;;;2.05;;
54665;SDS011;40566;50.006;36.180;2023-05-29T13:53:40;5.55;;;2.15;;
54665;SDS011;40566;50.006;36.180;2023-05-29T13:58:41;8.57;;;2.83;;
54665;SDS011;40566;50.006;36.180;2023-05-29T14:03:42;6.38;;;2.20;;
54665;SDS011;40566;50.006;36.180;2023-05-29T14:08:42;5.60;;;2.40;;
54665;SDS011;40566;50.006;36.180;2023-05-29T14:13:43;9.82;;;2.50;;
54665;SDS011;40566;50.006;36.180;2023-05-29T14:18:44;5.53;;;1.75;;
54665;SDS011;40566;50.006;36.180;2023-05-29T14:23:44;4.10;;;1.98;;
54665;SDS011;40566;50.006;36.180;2023-05-29T14:28:45;6.22;;;1.80;;
54665;SDS011;40566;50.006;36.180;2023-05-29T14:33:46;6.45;;;1.98;;
54665;SDS011;40566;50.006;36.180;2023-05-29T14:38:47;5.50;;;2.00;;
54665;SDS011;40566;50.006;36.180;2023-05-29T14:43:49;6.80;;;1.80;;
54665;SDS011;40566;50.006;36.180;2023-05-29T14:48:51;7.28;;;1.77;;
54665;SDS011;40566;50.006;36.180;2023-05-29T14:53:52;11.80;;;2.13;;
54665;SDS011;40566;50.006;36.180;2023-05-29T14:58:53;5.50;;;1.80;;
54665;SDS011;40566;50.006;36.180;2023-05-29T15:03:54;8.25;;;2.17;;
54665;SDS011;40566;50.006;36.180;2023-05-29T15:08:55;5.88;;;1.85;;
54665;SDS011;40566;50.006;36.180;2023-05-29T15:13:56;12.82;;;2.05;;
54665;SDS011;40566;50.006;36.180;2023-05-29T15:18:57;3.20;;;1.70;;
54665;SDS011;40566;50.006;36.180;2023-05-29T15:23:57;8.18;;;2.17;;
54665;SDS011;40566;50.006;36.180;2023-05-29T15:28:58;7.20;;;1.98;;
54665;SDS011;40566;50.006;36.180;2023-05-29T15:33:59;11.60;;;3.03;;
54665;SDS011;40566;50.006;36.180;2023-05-29T15:38:59;6.30;;;2.08;;
54665;SDS011;40566;50.006;36.180;2023-05-29T15:44:00;8.93;;;2.00;;
54665;SDS011;40566;50.006;36.180;2023-05-29T15:49:01;8.80;;;1.85;;
54665;SDS011;40566;50.006;36.180;2023-05-29T15:54:02;9.25;;;2.30;;
54665;SDS011;40566;50.006;36.180;2023-05-29T15:59:02;12.80;;;2.05;;
54665;SDS011;40566;50.006;36.180;2023-05-29T16:04:06;5.80;;;1.80;;
54665;SDS011;40566;50.006;36.180;2023-05-29T16:09:07;8.40;;;2.13;;
54665;SDS011;40566;50.006;36.180;2023-05-29T16:14:08;3.47;;;1.88;;
54665;SDS011;40566;50.006;36.180;2023-05-29T16:19:08;6.50;;;1.95;;
54665;SDS011;40566;50.006;36.180;2023-05-29T16:24:12;4.55;;;2.05;;
54665;SDS011;40566;50.006;36.180;2023-05-29T16:29:13;7.10;;;2.20;;
54665;SDS011;40566;50.006;36.180;2023-05-29T16:34:13;6.47;;;2.53;;
54665;SDS011;40566;50.006;36.180;2023-05-29T16:39:14;4.93;;;2.20;;
54665;SDS011;40566;50.006;36.180;2023-05-29T16:44:15;6.28;;;2.38;;
54665;SDS011;40566;50.006;36.180;2023-05-29T16:49:16;7.18;;;2.45;;
54665;SDS011;40566;50.006;36.180;2023-05-29T16:54:16;6.40;;;2.70;;
54665;SDS011;40566;50.006;36.180;2023-05-29T16:59:17;9.35;;;2.60;;
54665;SDS011;40566;50.006;36.180;2023-05-29T17:04:18;6.70;;;2.47;;
54665;SDS011;40566;50.006;36.180;2023-05-29T17:09:19;11.65;;;3.13;;
54665;SDS011;40566;50.006;36.180;2023-05-29T17:14:22;9.20;;;2.97;;
54665;SDS011;40566;50.006;36.180;2023-05-29T17:19:25;7.97;;;2.58;;
54665;SDS011;40566;50.006;36.180;2023-05-29T17:24:25;7.75;;;2.83;;
54665;SDS011;40566;50.006;36.180;2023-05-29T17:29:26;9.02;;;3.30;;
54665;SDS011;40566;50.006;36.180;2023-05-29T17:34:29;10.32;;;3.47;;
54665;SDS011;40566;50.006;36.180;2023-05-29T17:39:30;10.55;;;2.92;;
54665;SDS011;40566;50.006;36.180;2023-05-29T17:44:31;9.43;;;3.53;;
54665;SDS011;40566;50.006;36.180;2023-05-29T17:49:31;11.55;;;4.40;;
54665;SDS011;40566;50.006;36.180;2023-05-29T17:54:32;9.90;;;3.97;;
54665;SDS011;40566;50.006;36.180;2023-05-29T17:59:33;8.07;;;3.30;;
54665;SDS011;40566;50.006;36.180;2023-05-29T18:04:35;9.32;;;4.20;;
54665;SDS011;40566;50.006;36.180;2023-05-29T18:09:36;9.35;;;3.30;;
54665;SDS011;40566;50.006;36.180;2023-05-29T18:14:36;7.30;;;3.15;;
54665;SDS011;40566;50.006;36.180;2023-05-29T18:19:37;10.35;;;3.90;;
54665;SDS011;40566;50.006;36.180;2023-05-29T18:24:38;9.77;;;3.40;;
54665;SDS011;40566;50.006;36.180;2023-05-29T18:29:39;10.20;;;3.13;;
54665;SDS011;40566;50.006;36.180;2023-05-29T18:34:39;9.63;;;2.83;;
54665;SDS011;40566;50.006;36.180;2023-05-29T18:39:40;8.73;;;3.08;;
54665;SDS011;40566;50.006;36.180;2023-05-29T18:44:41;8.10;;;3.40;;
54665;SDS011;40566;50.006;36.180;2023-05-29T18:49:42;11.68;;;3.22;;
54665;SDS011;40566;50.006;36.180;2023-05-29T18:54:43;13.63;;;3.30;;
54665;SDS011;40566;50.006;36.180;2023-05-29T18:59:43;12.20;;;3.63;;
54665;SDS011;40566;50.006;36.180;2023-05-29T19:04:44;9.93;;;3.15;;
54665;SDS011;40566;50.006;36.180;2023-05-29T19:09:44;8.20;;;3.42;;
54665;SDS011;40566;50.006;36.180;2023-05-29T19:14:45;11.40;;;3.47;;
54665;SDS011;40566;50.006;36.180;2023-05-29T19:19:46;10.95;;;3.40;;
54665;SDS011;40566;50.006;36.180;2023-05-29T19:24:46;9.15;;;3.63;;
54665;SDS011;40566;50.006;36.180;2023-05-29T19:29:48;11.20;;;4.07;;
54665;SDS011;40566;50.006;36.180;2023-05-29T19:34:50;14.20;;;4.30;;
54665;SDS011;40566;50.006;36.180;2023-05-29T19:39:54;8.73;;;3.70;;
54665;SDS011;40566;50.006;36.180;2023-05-29T19:44:55;11.30;;;4.07;;
54665;SDS011;40566;50.006;36.180;2023-05-29T19:49:57;10.40;;;4.03;;
54665;SDS011;40566;50.006;36.180;2023-05-29T19:55:03;10.68;;;4.15;;
54665;SDS011;40566;50.006;36.180;2023-05-29T20:00:05;8.35;;;3.90;;
54665;SDS011;40566;50.006;36.180;2023-05-29T20:05:06;14.25;;;3.92;;
54665;SDS011;40566;50.006;36.180;2023-05-29T20:10:07;10.65;;;3.75;;
54665;SDS011;40566;50.006;36.180;2023-05-29T20:15:09;11.10;;;4.00;;
54665;SDS011;40566;50.006;36.180;2023-05-29T20:20:10;12.48;;;4.00;;
54665;SDS011;40566;50.006;36.180;2023-05-29T20:25:11;8.32;;;3.42;;
54665;SDS011;40566;50.006;36.180;2023-05-29T20:30:11;9.32;;;3.08;;
54665;SDS011;40566;50.006;36.180;2023-05-29T20:35:12;9.95;;;3.05;;
54665;SDS011;40566;50.006;36.180;2023-05-29T20:40:16;8.98;;;2.92;;
54665;SDS011;40566;50.006;36.180;2023-05-29T20:45:17;7.47;;;2.78;;
54665;SDS011;40566;50.006;36.180;2023-05-29T20:50:21;12.82;;;3.67;;
54665;SDS011;40566;50.006;36.180;2023-05-29T20:55:24;8.98;;;3.22;;
54665;SDS011;40566;50.006;36.180;2023-05-29T21:00:28;7.57;;;3.40;;
54665;SDS011;40566;50.006;36.180;2023-05-29T21:05:29;7.07;;;3.13;;
54665;SDS011;40566;50.006;36.180;2023-05-29T21:10:30;8.10;;;3.30;;
54665;SDS011;40566;50.006;36.180;2023-05-29T21:15:30;8.25;;;3.20;;
54665;SDS011;40566;50.006;36.180;2023-05-29T21:20:31;9.75;;;3.10;;
54665;SDS011;40566;50.006;36.180;2023-05-29T21:25:32;7.82;;;2.92;;
54665;SDS011;40566;50.006;36.180;2023-05-29T21:30:33;7.70;;;2.75;;
54665;SDS011;40566;50.006;36.180;2023-05-29T21:35:33;9.38;;;3.17;;
54665;SDS011;40566;50.006;36.180;2023-05-29T21:40:34;6.93;;;2.88;;
54665;SDS011;40566;50.006;36.180;2023-05-29T21:45:35;10.55;;;3.13;;
54665;SDS011;40566;50.006;36.180;2023-05-29T21:50:36;9.30;;;3.15;;
54665;SDS011;40566;50.006;36.180;2023-05-29T21:55:36;10.95;;;3.30;;
54665;SDS011;40566;50.006;36.180;2023-05-29T22:00:37;8.23;;;2.90;;
54665;SDS011;40566;50.006;36.180;2023-05-29T22:05:37;8.50;;;2.60;;
54665;SDS011;40566;50.006;36.180;2023-05-29T22:10:38;10.30;;;3.08;;
54665;SDS011;40566;50.006;36.180;2023-05-29T22:15:39;9.18;;;2.83;;
54665;SDS011;40566;50.006;36.180;2023-05-29T22:20:39;8.57;;;2.92;;
54665;SDS011;40566;50.006;36.180;2023-05-29T22:25:40;7.28;;;2.72;;
54665;SDS011;40566;50.006;36.180;2023-05-29T22:30:43;8.50;;;2.72;;
54665;SDS011;40566;50.006;36.180;2023-05-29T22:35:44;8.73;;;2.67;;
54665;SDS011;40566;50.006;36.180;2023-05-29T22:40:45;6.75;;;3.08;;
54665;SDS011;40566;50.006;36.180;2023-05-29T22:45:45;6.80;;;3.10;;
54665;SDS011;40566;50.006;36.180;2023-05-29T22:50:46;8.75;;;2.90;;
54665;SDS011;40566;50.006;36.180;2023-05-29T22:55:47;6.28;;;2.65;;
54665;SDS011;40566;50.006;36.180;2023-05-29T23:00:49;8.88;;;2.75;;
54665;SDS011;40566;50.006;36.180;2023-05-29T23:05:50;8.10;;;2.80;;
54665;SDS011;40566;50.006;36.180;2023-05-29T23:10:51;7.88;;;3.00;;
54665;SDS011;40566;50.006;36.180;2023-05-29T23:15:51;7.20;;;2.80;;
54665;SDS011;40566;50.006;36.180;2023-05-29T23:20:53;10.07;;;2.85;;
54665;SDS011;40566;50.006;36.180;2023-05-29T23:25:54;9.00;;;2.67;;
54665;SDS011;40566;50.006;36.180;2023-05-29T23:30:55;6.82;;;2.83;;
54665;SDS011;40566;50.006;36.180;2023-05-29T23:35:56;6.78;;;3.10;;
54665;SDS011;40566;50.006;36.180;2023-05-29T23:40:57;7.18;;;2.97;;
54665;SDS011;40566;50.006;36.180;2023-05-29T23:45:57;6.75;;;2.80;;
54665;SDS011;40566;50.006;36.180;2023-05-29T23:50:58;11.98;;;3.25;;
54665;SDS011;40566;50.006;36.180;2023-05-29T23:55:59;6.82;;;2.70;;
